createdAt,value
2019-05-20T00:02:24.444Z,17.90
2019-05-20T00:04:45.958Z,17.90
2019-05-20T00:07:16.339Z,17.90
2019-05-20T00:09:46.846Z,18.00
2019-05-20T00:12:17.290Z,18.00
2019-05-20T00:14:47.812Z,18.00
2019-05-20T00:17:18.207Z,18.00
2019-05-20T00:19:50.723Z,17.90
2019-05-20T00:22:20.713Z,17.90
2019-05-20T00:24:51.091Z,17.80
2019-05-20T00:27:21.514Z,17.80
2019-05-20T00:29:51.916Z,17.90
2019-05-20T00:32:22.351Z,17.90
2019-05-20T00:34:54.264Z,18.00
2019-05-20T00:37:24.690Z,18.00
2019-05-20T00:39:55.080Z,18.00
2019-05-20T00:42:25.611Z,17.90
2019-05-20T00:44:56.050Z,17.90
2019-05-20T00:47:26.474Z,17.80
2019-05-20T00:49:58.313Z,17.80
2019-05-20T00:52:28.810Z,17.80
2019-05-20T00:55:00.666Z,17.70
2019-05-20T00:57:31.374Z,17.70
2019-05-20T01:00:02.005Z,17.60
2019-05-20T01:02:32.942Z,17.60
2019-05-20T01:05:03.388Z,17.70
2019-05-20T01:07:34.601Z,17.70
2019-05-20T01:10:06.374Z,17.60
2019-05-20T01:12:36.751Z,17.60
2019-05-20T01:15:09.202Z,17.60
2019-05-20T01:17:41.055Z,17.50
2019-05-20T01:20:11.773Z,17.50
2019-05-20T01:22:42.146Z,17.40
2019-05-20T01:25:13.781Z,17.50
2019-05-20T01:27:44.203Z,17.40
2019-05-20T01:30:15.267Z,17.30
2019-05-20T01:32:47.361Z,17.30
2019-05-20T01:35:17.778Z,17.30
2019-05-20T01:37:49.654Z,17.40
2019-05-20T01:40:20.130Z,17.30
2019-05-20T01:42:50.506Z,17.20
2019-05-20T01:45:20.911Z,17.10
2019-05-20T01:47:51.447Z,17.10
2019-05-20T01:50:21.878Z,17.00
2019-05-20T01:52:52.254Z,17.00
2019-05-20T01:55:23.487Z,17.00
2019-05-20T01:57:53.943Z,16.90
2019-05-20T02:00:24.341Z,16.90
2019-05-20T02:02:54.734Z,16.90
2019-05-20T02:05:26.624Z,16.90
2019-05-20T02:07:57.077Z,16.70
2019-05-20T02:10:27.581Z,16.70
2019-05-20T02:12:58.798Z,16.70
2019-05-20T02:15:30.858Z,16.60
2019-05-20T02:18:01.246Z,16.50
2019-05-20T02:20:31.730Z,16.50
2019-05-20T02:23:18.450Z,16.50
2019-05-20T02:25:49.766Z,16.40
2019-05-20T02:28:20.247Z,16.30
2019-05-20T02:30:50.655Z,16.30
2019-05-20T02:33:21.062Z,16.30
2019-05-20T02:35:52.914Z,16.30
2019-05-20T02:38:23.675Z,16.20
2019-05-20T02:40:54.132Z,16.20
2019-05-20T02:43:24.548Z,16.20
2019-05-20T02:45:54.932Z,16.20
2019-05-20T02:48:25.416Z,16.20
2019-05-20T02:50:55.797Z,16.20
2019-05-20T02:53:26.207Z,16.10
2019-05-20T02:55:57.437Z,16.20
2019-05-20T02:58:27.857Z,16.10
2019-05-20T03:00:58.252Z,16.00
2019-05-20T03:03:28.623Z,15.90
2019-05-20T03:05:59.052Z,15.90
2019-05-20T03:08:29.428Z,15.90
2019-05-20T03:10:59.913Z,15.80
2019-05-20T03:13:30.357Z,15.80
2019-05-20T03:16:00.790Z,15.80
2019-05-20T03:18:31.234Z,15.80
2019-05-20T03:21:01.640Z,15.70
2019-05-20T03:23:32.054Z,15.60
2019-05-20T03:26:02.447Z,15.70
2019-05-20T03:28:33.043Z,15.70
2019-05-20T03:31:03.580Z,15.70
2019-05-20T03:33:34.075Z,15.80
2019-05-20T03:36:05.361Z,15.70
2019-05-20T03:38:35.778Z,15.60
2019-05-20T03:41:06.164Z,15.60
2019-05-20T03:43:36.632Z,15.50
2019-05-20T03:46:07.118Z,15.40
2019-05-20T03:48:37.575Z,15.40
2019-05-20T03:51:07.988Z,15.40
2019-05-20T03:53:38.383Z,15.40
2019-05-20T03:56:10.333Z,15.40
2019-05-20T03:58:40.799Z,15.50
2019-05-20T04:01:11.280Z,15.50
2019-05-20T04:03:41.761Z,15.50
2019-05-20T04:06:12.260Z,15.60
2019-05-20T04:08:44.175Z,15.60
2019-05-20T04:11:14.595Z,15.80
2019-05-20T04:13:44.979Z,15.80
2019-05-20T04:16:15.474Z,15.80
2019-05-20T04:18:45.918Z,15.90
2019-05-20T04:21:16.342Z,16.00
2019-05-20T04:23:48.344Z,16.00
2019-05-20T04:26:18.839Z,16.10
2019-05-20T04:28:50.815Z,16.00
2019-05-20T04:31:21.758Z,16.00
2019-05-20T04:33:52.206Z,16.10
2019-05-20T04:36:22.691Z,16.00
2019-05-20T04:38:54.637Z,16.10
2019-05-20T04:41:25.226Z,16.10
2019-05-20T04:43:55.854Z,16.20
2019-05-20T04:46:26.382Z,16.20
2019-05-20T04:48:59.163Z,16.30
2019-05-20T04:51:29.578Z,16.30
2019-05-20T04:54:01.532Z,16.40
2019-05-20T04:56:31.949Z,16.40
2019-05-20T04:59:02.377Z,16.40
2019-05-20T05:01:32.791Z,16.50
2019-05-20T05:04:03.254Z,16.40
2019-05-20T05:06:35.125Z,16.30
2019-05-20T05:09:06.910Z,16.40
2019-05-20T05:11:37.343Z,16.30
2019-05-20T05:14:08.003Z,16.30
2019-05-20T05:16:39.966Z,16.30
2019-05-20T05:19:10.346Z,16.30
2019-05-20T05:21:40.760Z,16.40
2019-05-20T05:24:11.217Z,16.50
2019-05-20T05:26:41.673Z,16.50
2019-05-20T05:29:12.170Z,16.60
2019-05-20T05:31:44.049Z,16.50
2019-05-20T05:34:14.463Z,16.40
2019-05-20T05:36:44.979Z,16.30
2019-05-20T05:39:15.395Z,16.20
2019-05-20T05:41:45.858Z,16.00
2019-05-20T05:44:16.294Z,15.90
2019-05-20T05:46:48.184Z,15.90
2019-05-20T05:49:18.643Z,15.90
2019-05-20T05:51:50.528Z,15.90
2019-05-20T05:54:22.363Z,16.00
2019-05-20T05:56:52.782Z,16.00
2019-05-20T05:59:23.178Z,16.10
2019-05-20T06:01:53.639Z,16.10
2019-05-20T06:04:24.175Z,16.10
2019-05-20T06:06:54.572Z,16.20
2019-05-20T06:09:24.964Z,16.30
2019-05-20T06:11:55.381Z,16.40
2019-05-20T06:14:25.760Z,16.40
2019-05-20T06:16:56.169Z,16.50
2019-05-20T06:19:26.542Z,16.60
2019-05-20T06:21:57.075Z,16.60
2019-05-20T06:24:27.445Z,16.80
2019-05-20T06:26:57.869Z,16.90
2019-05-20T06:29:29.785Z,17.00
2019-05-20T06:32:00.263Z,17.10
2019-05-20T06:34:30.658Z,17.10
2019-05-20T06:37:05.888Z,17.10
2019-05-20T06:39:36.430Z,17.20
2019-05-20T06:42:07.687Z,17.30
2019-05-20T06:44:51.755Z,17.30
2019-05-20T06:47:10.258Z,17.20
2019-05-20T06:49:40.757Z,17.20
2019-05-20T06:52:11.207Z,17.10
2019-05-20T06:54:41.652Z,17.10
2019-05-20T06:57:12.280Z,17.00
2019-05-20T06:59:42.719Z,16.90
2019-05-20T07:02:13.119Z,16.90
2019-05-20T07:04:43.566Z,16.80
2019-05-20T07:07:21.075Z,16.70
2019-05-20T07:09:46.075Z,16.60
2019-05-20T07:12:16.481Z,16.70
2019-05-20T07:14:47.053Z,16.70
2019-05-20T07:17:17.464Z,16.70
2019-05-20T07:19:47.852Z,16.80
2019-05-20T07:22:18.299Z,17.00
2019-05-20T07:24:50.284Z,17.00
2019-05-20T07:27:20.705Z,17.00
2019-05-20T07:29:52.567Z,17.10
2019-05-20T07:32:23.014Z,17.20
2019-05-20T07:34:53.442Z,17.40
2019-05-20T07:37:23.967Z,17.50
2019-05-20T07:39:54.507Z,17.60
2019-05-20T07:42:24.935Z,17.80
2019-05-20T07:44:55.369Z,18.10
2019-05-20T07:47:25.830Z,18.80
2019-05-20T07:49:56.245Z,19.30
2019-05-20T07:52:28.093Z,19.60
2019-05-20T07:55:00.388Z,19.80
2019-05-20T08:00:02.544Z,20.40
2019-05-20T08:02:33.275Z,20.40
2019-05-20T08:05:06.218Z,21.10
2019-05-20T08:07:51.314Z,22.00
2019-05-20T08:10:10.482Z,22.00
2019-05-20T08:12:42.452Z,21.80
2019-05-20T08:15:13.007Z,21.90
2019-05-20T08:17:43.435Z,22.20
2019-05-20T08:20:14.497Z,22.80
2019-05-20T08:22:44.987Z,23.60
2019-05-20T08:25:15.462Z,25.40
2019-05-20T08:27:45.948Z,27.20
2019-05-20T08:30:19.280Z,27.80
2019-05-20T08:32:49.869Z,27.90
2019-05-20T08:35:23.659Z,26.60
2019-05-20T08:37:52.390Z,25.90
2019-05-20T08:40:24.283Z,26.40
2019-05-20T08:42:54.755Z,27.20
2019-05-20T08:45:26.606Z,27.10
2019-05-20T08:47:57.097Z,29.20
2019-05-20T08:50:29.093Z,29.30
2019-05-20T08:52:59.529Z,29.70
2019-05-20T08:55:30.484Z,28.20
2019-05-20T08:58:01.093Z,27.30
2019-05-20T09:00:31.882Z,26.50
2019-05-20T09:03:02.328Z,26.20
2019-05-20T09:05:32.718Z,25.70
2019-05-20T09:08:04.121Z,24.70
2019-05-20T09:10:35.013Z,24.40
2019-05-20T09:13:05.790Z,24.50
2019-05-20T09:15:36.180Z,25.60
2019-05-20T09:18:06.669Z,25.00
2019-05-20T09:20:37.270Z,24.30
2019-05-20T09:23:09.195Z,23.50
2019-05-20T09:25:39.731Z,22.90
2019-05-20T09:28:10.142Z,22.10
2019-05-20T09:30:40.723Z,21.40
2019-05-20T09:33:11.207Z,20.80
2019-05-20T09:35:42.054Z,20.20
2019-05-20T09:38:20.250Z,19.80
2019-05-20T09:40:47.106Z,19.50
2019-05-20T09:43:17.759Z,19.40
2019-05-20T09:46:04.141Z,19.50
2019-05-20T09:48:20.304Z,19.80
2019-05-20T09:50:50.759Z,20.00
2019-05-20T09:53:23.936Z,21.00
2019-05-20T09:55:54.436Z,22.20
2019-05-20T09:58:25.809Z,22.80
2019-05-20T10:00:56.256Z,23.20
2019-05-20T10:03:26.648Z,23.20
2019-05-20T10:05:57.076Z,23.10
2019-05-20T10:08:37.651Z,22.90
2019-05-20T10:11:02.462Z,22.80
2019-05-20T10:13:32.894Z,22.80
2019-05-20T10:16:03.304Z,22.90
2019-05-20T10:18:38.157Z,22.80
2019-05-20T10:21:07.430Z,22.70
2019-05-20T10:23:39.535Z,22.50
2019-05-20T10:26:11.638Z,22.30
2019-05-20T10:28:46.519Z,22.20
2019-05-20T10:31:14.288Z,22.20
2019-05-20T10:33:45.504Z,22.20
2019-05-20T10:36:16.741Z,22.10
2019-05-20T10:38:57.724Z,22.10
2019-05-20T10:41:19.233Z,22.00
2019-05-20T10:43:49.642Z,22.00
2019-05-20T10:46:20.062Z,22.40
2019-05-20T10:48:50.438Z,22.60
2019-05-20T10:51:20.839Z,22.60
2019-05-20T10:53:51.202Z,22.70
2019-05-20T10:56:21.683Z,23.10
2019-05-20T10:58:52.108Z,23.00
2019-05-20T11:01:22.701Z,22.80
2019-05-20T11:03:53.295Z,22.80
2019-05-20T11:06:23.749Z,22.80
2019-05-20T11:08:54.221Z,22.80
2019-05-20T11:11:24.605Z,23.20
2019-05-20T11:13:55.136Z,23.60
2019-05-20T11:16:25.575Z,23.70
2019-05-20T11:18:58.367Z,24.00
2019-05-20T11:21:28.739Z,24.20
2019-05-20T11:24:00.706Z,24.40
2019-05-20T11:26:31.155Z,24.30
2019-05-20T11:29:03.128Z,24.10
2019-05-20T11:31:35.246Z,23.80
2019-05-20T11:34:05.960Z,23.90
2019-05-20T11:36:36.407Z,23.90
2019-05-20T11:39:07.755Z,23.90
2019-05-20T11:41:52.852Z,24.00
2019-05-20T11:44:12.033Z,24.00
2019-05-20T11:46:42.595Z,24.00
2019-05-20T11:49:13.045Z,23.70
2019-05-20T11:51:43.614Z,23.50
2019-05-20T11:54:15.497Z,23.50
2019-05-20T11:56:45.869Z,23.60
2019-05-20T11:59:16.315Z,23.70
2019-05-20T12:01:46.794Z,23.80
2019-05-20T12:04:17.199Z,23.90
2019-05-20T12:06:47.657Z,24.10
2019-05-20T12:09:19.546Z,24.40
2019-05-20T12:11:49.990Z,24.90
2019-05-20T12:14:20.503Z,24.60
2019-05-20T12:16:50.886Z,24.30
2019-05-20T12:19:21.373Z,23.80
2019-05-20T12:21:51.773Z,22.80
2019-05-20T12:24:22.201Z,21.10
2019-05-20T12:26:54.036Z,20.00
2019-05-20T12:29:24.449Z,19.30
2019-05-20T12:31:54.888Z,19.00
2019-05-20T12:34:25.303Z,19.00
2019-05-20T12:36:58.775Z,19.10
2019-05-20T12:39:29.183Z,19.20
2019-05-20T12:42:01.246Z,19.30
2019-05-20T12:44:33.271Z,19.50
2019-05-20T12:47:05.117Z,19.90
2019-05-20T12:49:35.798Z,20.30
2019-05-20T12:52:06.359Z,20.40
2019-05-20T12:54:36.817Z,20.40
2019-05-20T12:57:07.253Z,20.30
2019-05-20T12:59:37.691Z,20.20
2019-05-20T13:02:10.489Z,20.10
2019-05-20T13:04:40.967Z,20.10
2019-05-20T13:07:11.426Z,20.10
2019-05-20T13:09:41.899Z,20.20
2019-05-20T13:12:12.438Z,20.30
2019-05-20T13:14:42.857Z,20.60
2019-05-20T13:17:13.258Z,20.80
2019-05-20T13:19:43.651Z,21.10
2019-05-20T13:22:14.032Z,21.50
2019-05-20T13:24:44.406Z,21.90
2019-05-20T13:27:16.291Z,21.90
2019-05-20T13:29:46.739Z,21.90
2019-05-20T13:32:17.196Z,21.90
2019-05-20T13:34:47.614Z,22.00
2019-05-20T13:37:18.033Z,22.10
2019-05-20T13:39:48.567Z,22.30
2019-05-20T13:42:19.002Z,22.50
2019-05-20T13:44:49.447Z,22.40
2019-05-20T13:47:19.917Z,22.40
2019-05-20T13:49:50.423Z,22.50
2019-05-20T13:52:21.684Z,22.70
2019-05-20T13:54:52.996Z,22.70
2019-05-20T13:57:23.645Z,22.60
2019-05-20T13:59:55.796Z,22.60
2019-05-20T14:02:27.840Z,22.70
2019-05-20T14:04:58.223Z,22.80
2019-05-20T14:07:28.711Z,22.80
2019-05-20T14:09:59.142Z,22.70
2019-05-20T14:12:29.574Z,22.60
2019-05-20T14:15:01.458Z,22.60
2019-05-20T14:17:31.932Z,22.70
2019-05-20T14:20:02.633Z,22.80
2019-05-20T14:22:36.279Z,22.90
2019-05-20T14:25:08.235Z,23.10
2019-05-20T14:27:38.687Z,23.10
2019-05-20T14:30:10.700Z,23.00
2019-05-20T14:32:41.120Z,22.80
2019-05-20T14:35:12.110Z,22.50
2019-05-20T14:37:42.505Z,22.30
2019-05-20T14:40:13.162Z,22.20
2019-05-20T14:42:43.593Z,21.90
2019-05-20T14:45:14.032Z,21.80
2019-05-20T14:47:44.502Z,21.60
2019-05-20T14:50:15.350Z,21.50
2019-05-20T14:52:47.435Z,21.40
2019-05-20T14:55:17.893Z,21.40
2019-05-20T14:57:48.389Z,21.40
2019-05-20T15:00:18.887Z,21.40
2019-05-20T15:02:50.747Z,21.40
2019-05-20T15:05:21.183Z,21.30
2019-05-20T15:07:51.689Z,21.40
2019-05-20T15:10:22.118Z,21.40
2019-05-20T15:12:54.661Z,21.40
2019-05-20T15:15:25.486Z,21.40
2019-05-20T15:17:55.946Z,21.50
2019-05-20T15:20:26.436Z,21.60
2019-05-20T15:22:58.390Z,21.70
2019-05-20T15:25:28.814Z,21.80
2019-05-20T15:27:59.358Z,21.90
2019-05-20T15:30:29.851Z,22.20
2019-05-20T15:33:00.255Z,22.30
2019-05-20T15:35:30.655Z,22.20
2019-05-20T15:38:01.028Z,22.00
2019-05-20T15:40:31.478Z,21.90
2019-05-20T15:43:01.963Z,21.80
2019-05-20T15:45:32.453Z,21.80
2019-05-20T15:48:02.818Z,21.70
2019-05-20T15:50:33.237Z,21.70
2019-05-20T15:53:03.881Z,21.70
2019-05-20T15:55:34.460Z,21.70
2019-05-20T15:58:04.869Z,21.70
2019-05-20T16:00:35.353Z,21.70
2019-05-20T16:03:07.198Z,21.70
2019-05-20T16:05:37.657Z,21.70
2019-05-20T16:08:08.025Z,21.70
2019-05-20T16:10:41.559Z,21.70
2019-05-20T16:13:12.129Z,21.50
2019-05-20T16:15:42.639Z,21.30
2019-05-20T16:18:13.033Z,21.20
2019-05-20T16:20:43.778Z,21.10
2019-05-20T16:23:15.110Z,21.00
2019-05-20T16:25:45.712Z,21.00
2019-05-20T16:28:16.157Z,20.90
2019-05-20T16:30:46.561Z,20.90
2019-05-20T16:33:17.160Z,20.90
2019-05-20T16:35:50.417Z,21.00
2019-05-20T16:38:20.877Z,21.00
2019-05-20T16:40:51.293Z,21.10
2019-05-20T16:43:23.318Z,21.00
2019-05-20T16:45:54.000Z,20.80
2019-05-20T16:48:27.607Z,20.70
2019-05-20T16:50:59.731Z,20.50
2019-05-20T16:53:30.103Z,20.40
2019-05-20T16:56:02.016Z,20.20
2019-05-20T16:58:32.569Z,20.00
2019-05-20T17:01:03.143Z,20.00
2019-05-20T17:03:33.767Z,19.90
2019-05-20T17:06:04.267Z,19.80
2019-05-20T17:08:34.783Z,19.80
2019-05-20T17:11:06.770Z,19.70
2019-05-20T17:13:37.210Z,19.60
2019-05-20T17:16:09.146Z,19.70
2019-05-20T17:18:39.697Z,19.60
2019-05-20T17:21:10.065Z,19.60
2019-05-20T17:23:40.541Z,19.60
2019-05-20T17:26:11.006Z,19.60
2019-05-20T17:28:41.415Z,19.50
2019-05-20T17:31:13.261Z,19.50
2019-05-20T17:33:43.773Z,19.50
2019-05-20T17:36:14.161Z,19.40
2019-05-20T17:38:46.061Z,19.40
2019-05-20T17:41:16.497Z,19.40
2019-05-20T17:43:46.904Z,19.40
2019-05-20T17:46:17.604Z,19.40
2019-05-20T17:48:49.568Z,19.40
2019-05-20T17:51:20.022Z,19.40
2019-05-20T17:53:50.494Z,19.40
2019-05-20T17:56:20.927Z,19.40
2019-05-20T17:58:51.518Z,19.30
2019-05-20T18:01:23.378Z,19.30
2019-05-20T18:03:53.808Z,19.20
2019-05-20T18:06:24.210Z,19.20
2019-05-20T18:08:56.201Z,19.10
2019-05-20T18:11:26.611Z,19.00
2019-05-20T18:13:58.553Z,19.00
2019-05-20T18:16:29.062Z,18.90
2019-05-20T18:18:59.580Z,18.90
2019-05-20T18:21:30.030Z,18.80
2019-05-20T18:24:00.744Z,18.70
2019-05-20T18:26:31.192Z,18.70
2019-05-20T18:29:01.751Z,18.60
2019-05-20T18:31:33.092Z,18.50
2019-05-20T18:34:03.795Z,18.50
2019-05-20T18:36:34.233Z,18.40
2019-05-20T18:39:06.229Z,18.40
2019-05-20T18:41:36.779Z,18.30
2019-05-20T18:44:08.679Z,18.20
2019-05-20T18:46:39.053Z,18.20
2019-05-20T18:49:11.053Z,18.20
2019-05-20T18:51:41.496Z,18.10
2019-05-20T18:54:12.072Z,18.10
2019-05-20T18:56:42.627Z,18.10
2019-05-20T18:59:13.104Z,18.00
2019-05-20T19:01:55.812Z,17.90
2019-05-20T19:04:15.637Z,18.00
2019-05-20T19:06:46.042Z,18.00
2019-05-20T19:09:16.477Z,18.00
2019-05-20T19:11:47.014Z,17.90
2019-05-20T19:14:17.489Z,17.90
2019-05-20T19:16:49.428Z,17.90
2019-05-20T19:19:22.334Z,17.80
2019-05-20T19:21:55.540Z,17.80
2019-05-20T19:24:26.217Z,17.70
2019-05-20T19:26:56.622Z,17.70
2019-05-20T19:29:27.254Z,17.70
2019-05-20T19:32:01.771Z,17.60
2019-05-20T19:34:29.851Z,17.60
2019-05-20T19:37:00.575Z,17.60
2019-05-20T19:39:32.556Z,17.50
2019-05-20T19:42:03.196Z,17.50
2019-05-20T19:44:33.927Z,17.50
2019-05-20T19:47:04.468Z,17.40
2019-05-20T19:49:34.833Z,17.40
2019-05-20T19:52:05.466Z,17.40
2019-05-20T19:54:37.318Z,17.40
2019-05-20T19:57:08.602Z,17.40
2019-05-20T19:59:38.977Z,17.40
2019-05-20T20:02:17.061Z,17.30
2019-05-20T20:04:42.933Z,17.30
2019-05-20T20:07:13.470Z,17.30
2019-05-20T20:09:43.858Z,17.30
2019-05-20T20:12:15.852Z,17.20
2019-05-20T20:14:46.247Z,17.10
2019-05-20T20:17:16.686Z,17.20
2019-05-20T20:19:48.632Z,17.10
2019-05-20T20:22:19.029Z,17.20
2019-05-20T20:24:49.968Z,17.10
2019-05-20T20:27:20.510Z,17.10
2019-05-20T20:29:50.966Z,17.10
2019-05-20T20:32:36.775Z,17.00
2019-05-20T20:34:57.345Z,16.90
2019-05-20T20:37:27.735Z,16.90
2019-05-20T20:39:58.483Z,16.90
2019-05-20T20:42:28.959Z,16.80
2019-05-20T20:45:00.941Z,16.80
2019-05-20T20:47:41.243Z,16.70
2019-05-20T20:50:06.036Z,16.70
2019-05-20T20:52:36.583Z,16.70
2019-05-20T20:55:07.650Z,16.70
2019-05-20T20:57:39.522Z,16.70
2019-05-20T21:00:12.012Z,16.60
2019-05-20T21:02:52.892Z,16.70
2019-05-20T21:05:16.118Z,16.60
2019-05-20T21:07:46.538Z,16.70
2019-05-20T21:10:17.033Z,16.60
2019-05-20T21:12:47.519Z,16.60
2019-05-20T21:15:17.963Z,16.50
2019-05-20T21:17:49.929Z,16.50
2019-05-20T21:20:20.323Z,16.50
2019-05-20T21:22:50.739Z,16.40
2019-05-20T21:25:22.573Z,16.40
2019-05-20T21:27:53.056Z,16.40
2019-05-20T21:30:24.947Z,16.40
2019-05-20T21:33:08.789Z,16.30
2019-05-20T21:35:29.025Z,16.20
2019-05-20T21:37:59.523Z,16.20
2019-05-20T21:40:31.375Z,16.20
2019-05-20T21:43:01.830Z,16.10
2019-05-20T21:45:32.287Z,16.10
2019-05-20T21:48:02.678Z,16.10
2019-05-20T21:50:33.088Z,16.10
2019-05-20T21:53:03.564Z,16.00
2019-05-20T21:55:34.044Z,15.90
2019-05-20T21:58:04.592Z,15.90
2019-05-20T22:00:42.542Z,15.90
2019-05-20T22:03:24.617Z,15.90
2019-05-20T22:05:50.041Z,15.90
2019-05-20T22:08:20.508Z,15.80
2019-05-20T22:10:52.377Z,15.80
2019-05-20T22:13:22.759Z,15.70
2019-05-20T22:15:53.181Z,15.70
2019-05-20T22:18:23.561Z,15.70
2019-05-20T22:20:54.072Z,15.60
2019-05-20T22:23:26.061Z,15.60
2019-05-20T22:25:58.071Z,15.60
2019-05-20T22:28:28.524Z,15.60
2019-05-20T22:30:58.934Z,15.60
2019-05-20T22:33:40.930Z,15.50
2019-05-20T22:36:01.470Z,15.50
2019-05-20T22:38:31.839Z,15.50
2019-05-20T22:41:04.530Z,15.40
2019-05-20T22:43:36.369Z,15.40
2019-05-20T22:46:06.781Z,15.40
2019-05-20T22:48:37.172Z,15.40
2019-05-20T22:51:07.601Z,15.40
2019-05-20T22:53:38.017Z,15.30
2019-05-20T22:56:08.477Z,15.30
2019-05-20T22:58:38.868Z,15.30
2019-05-20T23:01:09.238Z,15.20
2019-05-20T23:03:55.377Z,15.10
2019-05-20T23:06:13.385Z,15.10
2019-05-20T23:08:43.874Z,15.10
2019-05-20T23:11:15.083Z,15.10
2019-05-20T23:13:45.655Z,15.00
2019-05-20T23:16:16.143Z,15.00
2019-05-20T23:18:46.719Z,14.90
2019-05-20T23:21:17.133Z,14.90
2019-05-20T23:23:47.571Z,14.90
2019-05-20T23:26:17.938Z,14.80
2019-05-20T23:28:48.342Z,14.80
2019-05-20T23:31:19.729Z,14.80
2019-05-20T23:33:50.117Z,14.70
2019-05-20T23:36:20.485Z,14.70
2019-05-20T23:38:50.926Z,14.70
2019-05-20T23:41:21.297Z,14.70
2019-05-20T23:43:51.682Z,14.60
2019-05-20T23:46:22.092Z,14.60
2019-05-20T23:48:52.520Z,14.50
2019-05-20T23:51:22.934Z,14.40
2019-05-20T23:53:53.390Z,14.40
2019-05-20T23:56:23.803Z,14.30
2019-05-20T23:58:54.177Z,14.30
